Time;durP1;ratioP1;P1;durP2;ratioP2;P2;SDS_P1;SDS_P2;PMS_P1;PMS_P2;Temp;Humidity;BMP_temperature;BMP_pressure;BME280_temperature;BME280_humidity;BME280_pressure;Samples;Min_cycle;Max_cycle;Signal;HPM_P1;HPM_P2
2023/12/06 00:01:33;;;;;;;162.37;52.67;;;;;;;;;;4884270;29;20309;-64
2023/12/06 00:03:59;;;;;;;138.87;50.93;;;;;;;;;;4877565;29;20109;-64
2023/12/06 00:06:25;;;;;;;143.37;51.57;;;;;;;;;;4874803;29;20366;-64
2023/12/06 00:08:52;;;;;;;145.67;50.93;;;;;;;;;;4874656;29;20088;-64
2023/12/06 00:11:19;;;;;;;155.40;54.63;;;;;;;;;;4867486;29;20317;-64
2023/12/06 00:13:45;;;;;;;133.40;49.93;;;;;;;;;;4856877;29;20049;-64
2023/12/06 00:16:11;;;;;;;148.43;51.30;;;;;;;;;;4865712;29;20812;-63
2023/12/06 00:18:37;;;;;;;152.13;54.73;;;;;;;;;;4883955;29;20048;-64
2023/12/06 00:21:03;;;;;;;130.97;50.50;;;;;;;;;;4884686;29;20318;-64
2023/12/06 00:23:29;;;;;;;149.00;52.77;;;;;;;;;;4880722;29;20421;-64
2023/12/06 00:25:55;;;;;;;150.17;53.07;;;;;;;;;;4893141;29;20064;-64
2023/12/06 00:28:22;;;;;;;157.73;52.67;;;;;;;;;;4891910;29;20120;-64
2023/12/06 00:30:48;;;;;;;152.50;52.27;;;;;;;;;;4879708;29;20372;-64
2023/12/06 00:33:14;;;;;;;141.13;54.07;;;;;;;;;;4879058;29;20895;-64
2023/12/06 00:35:40;;;;;;;128.83;51.57;;;;;;;;;;4874034;29;20053;-64
2023/12/06 00:38:06;;;;;;;139.80;50.90;;;;;;;;;;4874361;29;20053;-64
2023/12/06 00:40:32;;;;;;;150.03;53.87;;;;;;;;;;4873894;29;20089;-64
2023/12/06 00:42:57;;;;;;;139.63;49.60;;;;;;;;;;4873543;29;20045;-64
2023/12/06 00:45:23;;;;;;;146.70;55.43;;;;;;;;;;4874077;29;20642;-64
2023/12/06 00:47:49;;;;;;;163.07;55.87;;;;;;;;;;4873340;29;20088;-64
2023/12/06 00:50:16;;;;;;;151.50;52.87;;;;;;;;;;4873308;29;21608;-64
2023/12/06 00:52:42;;;;;;;145.00;53.73;;;;;;;;;;4874407;29;20723;-64
2023/12/06 00:55:08;;;;;;;148.87;53.53;;;;;;;;;;4872384;29;20306;-64
2023/12/06 00:57:34;;;;;;;179.03;54.17;;;;;;;;;;4879254;29;20104;-64
2023/12/06 01:00:00;;;;;;;170.03;55.10;;;;;;;;;;4870689;29;20309;-64
2023/12/06 01:02:27;;;;;;;184.63;56.87;;;;;;;;;;4873615;29;20365;-64
2023/12/06 01:04:53;;;;;;;208.77;60.63;;;;;;;;;;4874158;29;20920;-64
2023/12/06 01:07:19;;;;;;;160.93;53.80;;;;;;;;;;4874080;29;20353;-64
2023/12/06 01:09:45;;;;;;;169.43;56.60;;;;;;;;;;4872622;29;20305;-64
2023/12/06 01:12:11;;;;;;;201.70;58.53;;;;;;;;;;4877734;29;20289;-64
2023/12/06 01:14:37;;;;;;;181.43;56.50;;;;;;;;;;4892597;29;20456;-64
2023/12/06 01:17:04;;;;;;;162.53;54.17;;;;;;;;;;4874226;29;20297;-64
2023/12/06 01:19:30;;;;;;;144.40;52.67;;;;;;;;;;4871033;29;20776;-64
2023/12/06 01:21:56;;;;;;;161.67;54.80;;;;;;;;;;4873333;29;20361;-64
2023/12/06 01:24:22;;;;;;;173.33;54.13;;;;;;;;;;4874533;29;20300;-64
2023/12/06 01:26:48;;;;;;;140.43;50.73;;;;;;;;;;4873582;29;20046;-64
2023/12/06 01:29:14;;;;;;;177.37;52.97;;;;;;;;;;4873359;29;20365;-64
2023/12/06 01:31:40;;;;;;;193.10;56.83;;;;;;;;;;4873793;29;20216;-64
2023/12/06 01:34:07;;;;;;;152.80;51.87;;;;;;;;;;4873681;29;20793;-64
2023/12/06 01:36:33;;;;;;;133.87;51.03;;;;;;;;;;4872357;29;20531;-64
2023/12/06 01:38:59;;;;;;;142.17;50.03;;;;;;;;;;4874585;29;20665;-64
2023/12/06 01:41:25;;;;;;;120.30;49.00;;;;;;;;;;4874575;29;20052;-64
2023/12/06 01:43:51;;;;;;;173.33;56.27;;;;;;;;;;4873911;29;20070;-64
2023/12/06 01:46:17;;;;;;;131.43;50.87;;;;;;;;;;4874345;29;20201;-64
2023/12/06 01:48:43;;;;;;;190.90;59.73;;;;;;;;;;4874700;29;20297;-64
2023/12/06 01:51:10;;;;;;;160.23;54.07;;;;;;;;;;4874247;29;20281;-64
2023/12/06 01:53:36;;;;;;;180.73;55.87;;;;;;;;;;4862057;29;20338;-64
2023/12/06 01:56:03;;;;;;;182.90;56.33;;;;;;;;;;4858996;29;20808;-64
2023/12/06 01:58:29;;;;;;;174.63;51.87;;;;;;;;;;4877530;29;20293;-64
2023/12/06 02:00:56;;;;;;;161.57;54.73;;;;;;;;;;4877171;29;20059;-64
2023/12/06 02:03:22;;;;;;;163.27;57.93;;;;;;;;;;4877654;29;20428;-64
2023/12/06 02:05:50;;;;;;;175.73;56.27;;;;;;;;;;4878040;29;20694;-65
2023/12/06 02:08:16;;;;;;;210.50;60.53;;;;;;;;;;4877823;29;20076;-64
2023/12/06 02:10:42;;;;;;;226.17;63.73;;;;;;;;;;4878083;29;20551;-65
2023/12/06 02:13:08;;;;;;;224.77;62.77;;;;;;;;;;4877150;29;20535;-64
2023/12/06 02:15:35;;;;;;;225.40;63.53;;;;;;;;;;4877447;29;20294;-65
2023/12/06 02:18:02;;;;;;;175.80;53.27;;;;;;;;;;4877536;29;20383;-65
2023/12/06 02:20:28;;;;;;;190.73;56.17;;;;;;;;;;4877797;29;20041;-65
2023/12/06 02:22:55;;;;;;;166.00;56.23;;;;;;;;;;4876664;29;20350;-64
2023/12/06 02:25:21;;;;;;;187.60;59.47;;;;;;;;;;4877425;29;20745;-65
2023/12/06 02:27:47;;;;;;;235.93;66.33;;;;;;;;;;4877482;29;20084;-65
2023/12/06 02:30:14;;;;;;;270.10;67.47;;;;;;;;;;4876639;29;20282;-65
2023/12/06 02:32:40;;;;;;;181.13;57.30;;;;;;;;;;4877155;29;20361;-65
2023/12/06 02:35:24;;;;;;;209.17;60.17;;;;;;;;;;4876939;29;20297;-66
2023/12/06 02:37:52;;;;;;;195.03;56.60;;;;;;;;;;4877416;29;20101;-64
2023/12/06 02:40:18;;;;;;;206.70;59.83;;;;;;;;;;4876725;29;20301;-65
2023/12/06 02:42:44;;;;;;;265.53;67.10;;;;;;;;;;4875875;29;20325;-65
2023/12/06 02:45:10;;;;;;;165.27;55.07;;;;;;;;;;4876712;29;20346;-65
2023/12/06 02:47:36;;;;;;;190.13;57.23;;;;;;;;;;4876634;29;20301;-65
2023/12/06 02:50:02;;;;;;;213.80;61.57;;;;;;;;;;4877023;29;20285;-64
2023/12/06 02:52:29;;;;;;;250.33;65.53;;;;;;;;;;4877155;29;20722;-65
2023/12/06 02:54:55;;;;;;;258.13;67.93;;;;;;;;;;4876372;29;20290;-64
2023/12/06 02:57:21;;;;;;;201.60;60.33;;;;;;;;;;4877033;29;20293;-65
2023/12/06 02:59:47;;;;;;;168.80;55.23;;;;;;;;;;4876914;29;20685;-65
2023/12/06 03:02:13;;;;;;;251.90;64.17;;;;;;;;;;4876072;29;20324;-66
2023/12/06 03:04:39;;;;;;;256.53;65.67;;;;;;;;;;4876550;29;20516;-65
2023/12/06 03:07:05;;;;;;;158.33;54.60;;;;;;;;;;4876313;29;20285;-64
2023/12/06 03:09:31;;;;;;;155.87;53.13;;;;;;;;;;4876346;29;20417;-65
2023/12/06 03:11:57;;;;;;;179.33;55.70;;;;;;;;;;4876341;29;20761;-65
2023/12/06 03:14:23;;;;;;;183.63;55.93;;;;;;;;;;4876602;29;20285;-65
2023/12/06 03:16:49;;;;;;;230.30;63.03;;;;;;;;;;4876693;29;20292;-65
2023/12/06 03:19:15;;;;;;;155.60;51.43;;;;;;;;;;4876357;29;20297;-65
2023/12/06 03:21:41;;;;;;;161.03;50.97;;;;;;;;;;4875950;29;20369;-65
2023/12/06 03:24:07;;;;;;;184.80;58.50;;;;;;;;;;4876047;29;20135;-65
2023/12/06 03:26:33;;;;;;;152.93;51.00;;;;;;;;;;4875622;29;20052;-65
2023/12/06 03:28:59;;;;;;;198.40;56.77;;;;;;;;;;4875276;29;20309;-65
2023/12/06 03:31:25;;;;;;;181.47;54.27;;;;;;;;;;4876279;29;20294;-65
2023/12/06 03:33:51;;;;;;;175.17;55.10;;;;;;;;;;4875189;29;20332;-65
2023/12/06 03:36:17;;;;;;;141.07;51.00;;;;;;;;;;4874399;29;20429;-65
2023/12/06 03:38:43;;;;;;;140.50;50.67;;;;;;;;;;4875222;29;20464;-65
2023/12/06 03:41:09;;;;;;;125.67;50.07;;;;;;;;;;4876059;29;20057;-65
2023/12/06 03:43:35;;;;;;;198.47;57.33;;;;;;;;;;4876250;29;20422;-66
2023/12/06 03:46:02;;;;;;;138.00;51.20;;;;;;;;;;4876014;29;20301;-66
2023/12/06 03:48:28;;;;;;;146.70;51.83;;;;;;;;;;4876092;29;20285;-65
2023/12/06 03:50:55;;;;;;;128.23;48.53;;;;;;;;;;4876230;29;20053;-65
2023/12/06 03:53:21;;;;;;;175.97;55.03;;;;;;;;;;4875972;29;20297;-65
2023/12/06 03:55:47;;;;;;;151.37;51.93;;;;;;;;;;4869202;29;20556;-66
2023/12/06 03:58:13;;;;;;;165.00;53.43;;;;;;;;;;4875354;29;20294;-65
2023/12/06 04:00:39;;;;;;;172.93;53.63;;;;;;;;;;4875826;29;20496;-65
2023/12/06 04:03:08;;;;;;;161.60;51.97;;;;;;;;;;4874318;29;20286;-65
2023/12/06 04:05:35;;;;;;;162.90;52.47;;;;;;;;;;4875969;29;20774;-65
2023/12/06 04:08:02;;;;;;;136.93;46.97;;;;;;;;;;4875196;29;20297;-65
2023/12/06 04:10:28;;;;;;;122.77;46.07;;;;;;;;;;4875709;29;20571;-65
2023/12/06 04:12:54;;;;;;;151.93;51.23;;;;;;;;;;4875486;29;20364;-65
2023/12/06 04:15:20;;;;;;;126.67;46.07;;;;;;;;;;4874750;29;20648;-65
2023/12/06 04:17:46;;;;;;;160.10;52.27;;;;;;;;;;4874436;29;20045;-65
2023/12/06 04:20:12;;;;;;;147.80;50.47;;;;;;;;;;4872193;29;20504;-65
2023/12/06 04:22:38;;;;;;;165.37;52.13;;;;;;;;;;4874224;29;20107;-65
2023/12/06 04:25:06;;;;;;;199.33;56.07;;;;;;;;;;4873162;29;20349;-64
2023/12/06 04:27:32;;;;;;;144.70;49.43;;;;;;;;;;4873420;29;20045;-65
2023/12/06 04:29:58;;;;;;;125.37;44.23;;;;;;;;;;4868440;29;20317;-65
2023/12/06 04:32:24;;;;;;;106.27;43.10;;;;;;;;;;4863560;29;20052;-65
2023/12/06 04:34:54;;;;;;;113.87;44.53;;;;;;;;;;4874387;29;20111;-65
2023/12/06 04:37:21;;;;;;;128.20;46.10;;;;;;;;;;4873747;29;20725;-65
2023/12/06 04:39:46;;;;;;;125.07;44.80;;;;;;;;;;4873963;29;20500;-64
2023/12/06 04:42:13;;;;;;;135.30;46.00;;;;;;;;;;4874630;29;20313;-65
2023/12/06 04:44:39;;;;;;;95.50;40.23;;;;;;;;;;4874056;29;20491;-64
2023/12/06 04:47:06;;;;;;;115.73;42.47;;;;;;;;;;4874524;29;20284;-64
2023/12/06 04:49:32;;;;;;;118.60;44.10;;;;;;;;;;4873288;29;20305;-64
2023/12/06 04:51:58;;;;;;;107.77;39.07;;;;;;;;;;4873482;29;20807;-65
2023/12/06 04:54:25;;;;;;;120.27;45.63;;;;;;;;;;4873364;29;20052;-65
2023/12/06 04:56:51;;;;;;;139.00;44.57;;;;;;;;;;4874508;29;20297;-65
2023/12/06 04:59:17;;;;;;;115.87;43.17;;;;;;;;;;4874111;29;21100;-65
2023/12/06 05:01:43;;;;;;;101.63;39.47;;;;;;;;;;4873953;29;20385;-65
2023/12/06 05:04:12;;;;;;;93.77;38.47;;;;;;;;;;4873453;29;20301;-65
2023/12/06 05:06:40;;;;;;;110.53;42.40;;;;;;;;;;4873691;29;20298;-65
2023/12/06 05:09:07;;;;;;;122.93;41.83;;;;;;;;;;4873815;29;20049;-65
2023/12/06 05:11:33;;;;;;;123.73;40.97;;;;;;;;;;4874645;29;20048;-65
2023/12/06 05:13:59;;;;;;;135.73;46.20;;;;;;;;;;4873209;29;20136;-65
2023/12/06 05:16:25;;;;;;;142.17;46.37;;;;;;;;;;4874671;29;20377;-65
2023/12/06 05:18:51;;;;;;;145.47;45.73;;;;;;;;;;4871224;29;20516;-65
2023/12/06 05:21:17;;;;;;;125.83;44.53;;;;;;;;;;4865634;29;20056;-65
2023/12/06 05:23:43;;;;;;;89.17;37.80;;;;;;;;;;4874844;29;20121;-65
2023/12/06 05:26:09;;;;;;;86.00;36.97;;;;;;;;;;4859336;29;20064;-65
2023/12/06 05:28:35;;;;;;;123.93;43.03;;;;;;;;;;4856331;29;20436;-65
2023/12/06 05:31:01;;;;;;;112.80;41.93;;;;;;;;;;4859709;29;20489;-65
2023/12/06 05:33:27;;;;;;;138.63;47.07;;;;;;;;;;4859714;29;20049;-65
2023/12/06 05:35:55;;;;;;;92.00;39.80;;;;;;;;;;4859243;29;20053;-65
2023/12/06 05:38:21;;;;;;;88.97;39.13;;;;;;;;;;4874318;29;20297;-64
2023/12/06 05:40:47;;;;;;;125.70;44.37;;;;;;;;;;4877984;29;20085;-65
2023/12/06 05:43:13;;;;;;;107.13;40.73;;;;;;;;;;4877444;29;20747;-65
2023/12/06 05:45:39;;;;;;;89.57;37.93;;;;;;;;;;4878242;29;20285;-64
2023/12/06 05:48:05;;;;;;;132.57;44.60;;;;;;;;;;4877874;29;20053;-64
2023/12/06 05:50:31;;;;;;;105.67;41.90;;;;;;;;;;4877960;29;20045;-65
2023/12/06 05:52:58;;;;;;;79.47;35.30;;;;;;;;;;4878010;29;20053;-65
2023/12/06 05:55:24;;;;;;;98.17;41.10;;;;;;;;;;4877286;29;20297;-64
2023/12/06 05:57:50;;;;;;;118.70;43.57;;;;;;;;;;4877765;29;20059;-64
2023/12/06 06:00:17;;;;;;;87.40;40.27;;;;;;;;;;4877752;29;20037;-64
2023/12/06 06:02:43;;;;;;;117.63;44.50;;;;;;;;;;4877634;29;20057;-64
2023/12/06 06:05:10;;;;;;;124.87;43.83;;;;;;;;;;4877691;29;20049;-64
2023/12/06 06:07:36;;;;;;;142.73;48.03;;;;;;;;;;4877827;29;20286;-64
2023/12/06 06:10:03;;;;;;;103.33;42.07;;;;;;;;;;4877339;29;20492;-65
2023/12/06 06:12:29;;;;;;;98.97;35.97;;;;;;;;;;4877501;29;20293;-64
2023/12/06 06:14:55;;;;;;;93.70;39.13;;;;;;;;;;4877836;29;20053;-64
2023/12/06 06:17:22;;;;;;;93.97;41.40;;;;;;;;;;4877747;29;20057;-64
2023/12/06 06:19:48;;;;;;;124.57;44.23;;;;;;;;;;4876851;29;20488;-64
2023/12/06 06:22:14;;;;;;;90.03;40.40;;;;;;;;;;4867889;29;20140;-64
2023/12/06 06:24:40;;;;;;;124.33;45.33;;;;;;;;;;4873422;29;20373;-64
2023/12/06 06:27:06;;;;;;;90.50;41.27;;;;;;;;;;4875584;29;20551;-64
2023/12/06 06:29:32;;;;;;;131.23;48.37;;;;;;;;;;4872975;29;20052;-64
2023/12/06 06:31:58;;;;;;;143.50;47.67;;;;;;;;;;4877126;29;20056;-64
2023/12/06 06:34:24;;;;;;;114.37;42.73;;;;;;;;;;4873169;29;20381;-65
2023/12/06 06:36:50;;;;;;;87.87;39.00;;;;;;;;;;4858775;29;20056;-64
2023/12/06 06:39:16;;;;;;;116.97;43.37;;;;;;;;;;4858332;29;20055;-64
2023/12/06 06:41:42;;;;;;;155.43;48.60;;;;;;;;;;4857724;29;20050;-64
2023/12/06 06:44:08;;;;;;;142.93;48.70;;;;;;;;;;4858483;29;20053;-64
2023/12/06 06:46:34;;;;;;;108.57;43.57;;;;;;;;;;4869989;29;20044;-65
2023/12/06 06:49:01;;;;;;;86.03;38.97;;;;;;;;;;4876691;29;20278;-64
2023/12/06 06:51:33;;;;;;;87.13;40.00;;;;;;;;;;4877029;29;20048;-64
2023/12/06 06:53:59;;;;;;;103.87;42.83;;;;;;;;;;4876769;29;20293;-64
2023/12/06 06:56:25;;;;;;;92.07;40.43;;;;;;;;;;4876863;29;20053;-64
2023/12/06 06:58:51;;;;;;;108.53;40.20;;;;;;;;;;4876346;29;20301;-64
2023/12/06 07:01:18;;;;;;;81.33;37.30;;;;;;;;;;4876209;29;20056;-64
2023/12/06 07:03:44;;;;;;;111.63;44.47;;;;;;;;;;4876836;29;20053;-64
2023/12/06 07:06:10;;;;;;;108.63;41.93;;;;;;;;;;4867986;29;20045;-64
2023/12/06 07:08:37;;;;;;;115.20;44.17;;;;;;;;;;4857779;29;20054;-64
2023/12/06 07:11:04;;;;;;;100.17;40.43;;;;;;;;;;4858048;29;20580;-64
2023/12/06 07:13:31;;;;;;;100.70;39.63;;;;;;;;;;4857858;29;20057;-64
2023/12/06 07:15:58;;;;;;;115.87;45.30;;;;;;;;;;4857377;29;20057;-64
2023/12/06 07:18:24;;;;;;;71.50;35.20;;;;;;;;;;4857723;29;20532;-64
2023/12/06 07:20:51;;;;;;;99.20;40.37;;;;;;;;;;4870306;29;20536;-64
2023/12/06 07:23:18;;;;;;;81.37;35.67;;;;;;;;;;4876450;29;20297;-65
2023/12/06 07:25:45;;;;;;;105.10;42.20;;;;;;;;;;4874180;29;20504;-64
2023/12/06 07:28:11;;;;;;;525.23;92.93;;;;;;;;;;4857231;29;20068;-64
2023/12/06 07:30:37;;;;;;;72.63;34.17;;;;;;;;;;4871589;29;20056;-65
2023/12/06 07:33:03;;;;;;;123.27;40.67;;;;;;;;;;4875821;29;20050;-64
2023/12/06 07:35:29;;;;;;;63.87;33.07;;;;;;;;;;4873821;29;20052;-64
2023/12/06 07:37:55;;;;;;;98.23;38.83;;;;;;;;;;4857868;29;20711;-65
2023/12/06 07:40:21;;;;;;;76.07;34.40;;;;;;;;;;4875809;29;20060;-64
2023/12/06 07:42:48;;;;;;;61.50;30.40;;;;;;;;;;4875388;29;20059;-65
2023/12/06 07:45:14;;;;;;;75.03;34.27;;;;;;;;;;4875635;29;20583;-65
2023/12/06 07:47:40;;;;;;;311.23;59.23;;;;;;;;;;4875508;29;20085;-64
2023/12/06 07:50:07;;;;;;;139.30;44.00;;;;;;;;;;4875922;29;20416;-64
2023/12/06 07:52:33;;;;;;;200.73;45.77;;;;;;;;;;4874228;29;20416;-64
2023/12/06 07:55:00;;;;;;;70.10;32.47;;;;;;;;;;4874174;29;20500;-64
2023/12/06 07:57:28;;;;;;;115.30;42.00;;;;;;;;;;4874977;29;20048;-65
2023/12/06 07:59:55;;;;;;;77.50;34.77;;;;;;;;;;4875437;29;20056;-64
2023/12/06 08:02:22;;;;;;;73.23;33.17;;;;;;;;;;4874751;29;20045;-65
2023/12/06 08:04:48;;;;;;;74.27;33.13;;;;;;;;;;4875502;29;20332;-65
2023/12/06 08:07:13;;;;;;;96.23;39.13;;;;;;;;;;4875554;29;20831;-65
2023/12/06 08:09:40;;;;;;;81.60;35.50;;;;;;;;;;4873326;29;20100;-65
2023/12/06 08:12:07;;;;;;;75.90;32.90;;;;;;;;;;4875400;29;20049;-65
2023/12/06 08:14:33;;;;;;;88.00;35.43;;;;;;;;;;4874793;29;20061;-64
2023/12/06 08:16:59;;;;;;;117.83;35.93;;;;;;;;;;4874269;29;20132;-64
2023/12/06 08:19:26;;;;;;;92.87;37.07;;;;;;;;;;4874848;29;20132;-65
2023/12/06 08:21:52;;;;;;;88.33;36.43;;;;;;;;;;4875251;29;20061;-64
2023/12/06 08:24:18;;;;;;;57.87;28.37;;;;;;;;;;4858929;29;20065;-65
2023/12/06 08:26:44;;;;;;;70.27;32.37;;;;;;;;;;4873479;29;20077;-65
2023/12/06 08:29:11;;;;;;;67.27;31.77;;;;;;;;;;4873938;29;20068;-65
2023/12/06 08:31:37;;;;;;;57.33;30.30;;;;;;;;;;4874538;29;20591;-65
2023/12/06 08:34:03;;;;;;;62.33;28.80;;;;;;;;;;4874752;29;20567;-65
2023/12/06 08:36:29;;;;;;;81.40;34.57;;;;;;;;;;4861775;29;20049;-65
2023/12/06 08:38:55;;;;;;;64.90;30.77;;;;;;;;;;4856552;29;20343;-65
2023/12/06 08:41:23;;;;;;;75.57;32.50;;;;;;;;;;4858348;29;20057;-64
2023/12/06 08:43:49;;;;;;;67.90;30.57;;;;;;;;;;4873073;29;20064;-64
2023/12/06 08:46:15;;;;;;;73.73;30.00;;;;;;;;;;4873058;29;20496;-64
2023/12/06 08:48:41;;;;;;;71.37;30.87;;;;;;;;;;4874547;29;20415;-64
2023/12/06 08:51:08;;;;;;;57.67;29.10;;;;;;;;;;4865774;29;20045;-64
2023/12/06 08:53:35;;;;;;;60.67;28.40;;;;;;;;;;4874457;29;20084;-64
2023/12/06 08:56:01;;;;;;;81.70;34.50;;;;;;;;;;4874087;29;20112;-64
2023/12/06 08:58:27;;;;;;;64.13;30.60;;;;;;;;;;4873970;29;20393;-64
2023/12/06 09:00:54;;;;;;;62.03;29.57;;;;;;;;;;4874959;29;20049;-65
2023/12/06 09:03:20;;;;;;;49.83;27.50;;;;;;;;;;4873313;29;20064;-64
2023/12/06 09:05:48;;;;;;;74.73;33.33;;;;;;;;;;4888331;29;20048;-64
2023/12/06 09:08:15;;;;;;;48.13;28.03;;;;;;;;;;4886623;29;20152;-64
2023/12/06 09:10:41;;;;;;;72.57;32.60;;;;;;;;;;4879769;29;20128;-64
2023/12/06 09:13:07;;;;;;;73.17;32.43;;;;;;;;;;4879627;29;20093;-64
2023/12/06 09:15:33;;;;;;;62.57;30.47;;;;;;;;;;4880540;29;20048;-64
2023/12/06 09:17:59;;;;;;;52.57;28.00;;;;;;;;;;4878441;29;20056;-64
2023/12/06 09:20:25;;;;;;;41.07;26.13;;;;;;;;;;4889494;29;20048;-64
2023/12/06 09:22:52;;;;;;;49.37;28.57;;;;;;;;;;4899309;29;20057;-64
2023/12/06 09:25:18;;;;;;;77.77;34.50;;;;;;;;;;4877850;29;20060;-64
2023/12/06 09:27:44;;;;;;;59.50;29.97;;;;;;;;;;4880513;29;20056;-64
2023/12/06 09:30:10;;;;;;;49.13;27.50;;;;;;;;;;4881281;29;20064;-64
2023/12/06 09:32:36;;;;;;;72.87;32.93;;;;;;;;;;4874434;29;20050;-64
2023/12/06 09:35:03;;;;;;;77.00;34.13;;;;;;;;;;4869687;29;20048;-64
2023/12/06 09:37:29;;;;;;;77.90;32.00;;;;;;;;;;4878741;29;20049;-64
2023/12/06 09:39:55;;;;;;;63.67;30.37;;;;;;;;;;4878799;29;20048;-64
2023/12/06 09:42:22;;;;;;;54.07;29.80;;;;;;;;;;4886708;29;20075;-64
2023/12/06 09:44:48;;;;;;;68.40;32.70;;;;;;;;;;4891712;29;20060;-64
2023/12/06 09:47:14;;;;;;;57.13;29.73;;;;;;;;;;4888116;29;20151;-65
2023/12/06 09:49:40;;;;;;;43.27;26.10;;;;;;;;;;4893729;29;20594;-64
2023/12/06 09:52:09;;;;;;;59.20;27.90;;;;;;;;;;4880210;29;20053;-64
2023/12/06 09:54:38;;;;;;;82.97;31.67;;;;;;;;;;4875563;29;20048;-64
2023/12/06 09:57:05;;;;;;;50.93;27.23;;;;;;;;;;4877892;29;20067;-64
2023/12/06 09:59:31;;;;;;;60.93;29.60;;;;;;;;;;4863061;29;20297;-64
2023/12/06 10:01:57;;;;;;;64.17;30.53;;;;;;;;;;4886256;29;20516;-64
2023/12/06 10:04:23;;;;;;;61.43;30.83;;;;;;;;;;4882185;29;20052;-64
2023/12/06 10:06:49;;;;;;;45.03;24.93;;;;;;;;;;4899492;29;20041;-64
2023/12/06 10:09:16;;;;;;;48.97;26.03;;;;;;;;;;4893653;29;20049;-64
2023/12/06 10:11:42;;;;;;;45.43;24.53;;;;;;;;;;4890141;29;20147;-64
2023/12/06 10:14:21;;;;;;;44.60;23.70;;;;;;;;;;4890947;29;20049;-64
2023/12/06 10:16:48;;;;;;;34.07;22.10;;;;;;;;;;4875855;29;20104;-64
2023/12/06 10:19:22;;;;;;;36.57;21.73;;;;;;;;;;4876706;29;20117;-64
2023/12/06 10:21:48;;;;;;;36.63;20.73;;;;;;;;;;4876344;29;20061;-64
2023/12/06 10:24:14;;;;;;;31.73;20.90;;;;;;;;;;4877109;29;20059;-64
2023/12/06 10:26:40;;;;;;;37.87;21.23;;;;;;;;;;4876920;29;20041;-64
2023/12/06 10:29:06;;;;;;;47.97;24.43;;;;;;;;;;4881585;29;20501;-64
2023/12/06 10:31:42;;;;;;;41.37;23.80;;;;;;;;;;4894463;29;20411;-64
2023/12/06 10:34:09;;;;;;;33.50;21.87;;;;;;;;;;4877585;29;20057;-65
2023/12/06 10:36:38;;;;;;;45.53;23.03;;;;;;;;;;4877262;29;20045;-64
2023/12/06 10:39:11;;;;;;;36.37;21.70;;;;;;;;;;4876220;29;20056;-64
2023/12/06 10:41:38;;;;;;;46.15;22.55;;;;;;;;;;4870175;29;20461;-64
2023/12/06 10:44:04;;;;;;;38.83;21.13;;;;;;;;;;4858780;29;20456;-64
2023/12/06 10:46:30;;;;;;;30.87;19.87;;;;;;;;;;4876831;29;20045;-64
2023/12/06 10:48:59;;;;;;;33.93;21.87;;;;;;;;;;4864335;29;20071;-64
2023/12/06 10:51:25;;;;;;;33.83;21.87;;;;;;;;;;4873571;29;20500;-64
2023/12/06 10:53:52;;;;;;;44.67;23.33;;;;;;;;;;4876159;29;20498;-64
2023/12/06 10:56:19;;;;;;;36.67;22.50;;;;;;;;;;4883166;29;20571;-64
2023/12/06 10:58:46;;;;;;;41.93;23.27;;;;;;;;;;4894210;29;20049;-64
2023/12/06 11:01:13;;;;;;;48.33;25.83;;;;;;;;;;4887731;29;20135;-64
2023/12/06 11:03:39;;;;;;;50.53;27.37;;;;;;;;;;4876321;29;20472;-64
2023/12/06 11:06:14;;;;;;;41.63;23.77;;;;;;;;;;4876601;29;20057;-64
2023/12/06 11:08:40;;;;;;;39.30;22.70;;;;;;;;;;4861734;29;20110;-64
2023/12/06 11:11:14;;;;;;;41.27;24.63;;;;;;;;;;4878335;29;20048;-64
2023/12/06 11:13:50;;;;;;;35.07;21.43;;;;;;;;;;4883103;29;20112;-64
2023/12/06 11:16:34;;;;;;;35.93;22.43;;;;;;;;;;4875853;29;20529;-64
2023/12/06 11:19:01;;;;;;;32.60;22.03;;;;;;;;;;4875851;29;20057;-64
2023/12/06 11:21:28;;;;;;;39.93;23.50;;;;;;;;;;4875357;29;20468;-64
2023/12/06 11:23:55;;;;;;;37.87;21.80;;;;;;;;;;4887685;29;20061;-64
2023/12/06 11:26:21;;;;;;;40.60;25.30;;;;;;;;;;4891655;29;20052;-64
2023/12/06 11:28:49;;;;;;;42.33;23.40;;;;;;;;;;4891944;29;20061;-64
2023/12/06 11:31:17;;;;;;;36.70;23.43;;;;;;;;;;4892005;29;20076;-64
2023/12/06 11:33:55;;;;;;;35.07;21.40;;;;;;;;;;4892334;29;20395;-64
2023/12/06 11:36:24;;;;;;;41.20;21.03;;;;;;;;;;4876328;29;20061;-64
2023/12/06 11:38:50;;;;;;;46.00;23.33;;;;;;;;;;4873575;29;20109;-64
2023/12/06 11:41:17;;;;;;;34.07;21.60;;;;;;;;;;4872470;29;20049;-64
2023/12/06 11:43:52;;;;;;;38.57;23.73;;;;;;;;;;4872096;29;20543;-65
2023/12/06 11:46:20;;;;;;;36.93;23.23;;;;;;;;;;4886972;29;20085;-64
2023/12/06 11:48:48;;;;;;;36.80;21.00;;;;;;;;;;4871721;29;20049;-64
2023/12/06 11:51:19;;;;;;;39.10;22.17;;;;;;;;;;4883033;29;20053;-64
2023/12/06 11:53:45;;;;;;;41.83;23.13;;;;;;;;;;4875405;29;20564;-65
2023/12/06 11:56:11;;;;;;;28.73;19.13;;;;;;;;;;4873822;29;20419;-64
2023/12/06 11:58:38;;;;;;;30.57;20.93;;;;;;;;;;4874748;29;20049;-64
2023/12/06 12:01:05;;;;;;;31.83;20.10;;;;;;;;;;4875174;29;20060;-64
2023/12/06 12:03:31;;;;;;;33.07;19.97;;;;;;;;;;4868541;29;20049;-64
2023/12/06 12:05:58;;;;;;;31.97;20.13;;;;;;;;;;4875048;29;20045;-64
2023/12/06 12:08:24;;;;;;;35.77;20.60;;;;;;;;;;4887263;29;20056;-64
2023/12/06 12:10:51;;;;;;;29.57;19.00;;;;;;;;;;4872146;29;20056;-64
2023/12/06 12:13:18;;;;;;;43.60;21.43;;;;;;;;;;4875469;29;20088;-64
2023/12/06 12:15:53;;;;;;;30.70;18.53;;;;;;;;;;4874701;29;20067;-64
2023/12/06 12:18:20;;;;;;;37.03;21.23;;;;;;;;;;4873352;29;20049;-64
2023/12/06 12:20:46;;;;;;;33.00;19.70;;;;;;;;;;4873801;29;20523;-64
2023/12/06 12:23:12;;;;;;;38.33;20.83;;;;;;;;;;4893786;29;20056;-64
2023/12/06 12:25:50;;;;;;;48.73;23.73;;;;;;;;;;4886002;29;20468;-64
2023/12/06 12:28:20;;;;;;;30.47;20.30;;;;;;;;;;4873563;29;20056;-64
2023/12/06 12:30:47;;;;;;;35.83;20.97;;;;;;;;;;4878673;29;20053;-64
2023/12/06 12:33:14;;;;;;;33.97;19.57;;;;;;;;;;4893179;29;20523;-64
2023/12/06 12:35:41;;;;;;;33.30;20.27;;;;;;;;;;4892051;29;20527;-64
2023/12/06 12:38:07;;;;;;;35.70;19.50;;;;;;;;;;4890611;29;20053;-64
2023/12/06 12:40:33;;;;;;;29.90;18.73;;;;;;;;;;4891722;29;20092;-64
2023/12/06 12:43:00;;;;;;;40.03;20.27;;;;;;;;;;4880917;29;20060;-65
2023/12/06 12:45:26;;;;;;;30.37;19.20;;;;;;;;;;4877426;29;20053;-64
2023/12/06 12:47:53;;;;;;;33.87;18.73;;;;;;;;;;4876746;29;20112;-64
2023/12/06 12:50:19;;;;;;;33.83;19.13;;;;;;;;;;4893421;29;20048;-64
2023/12/06 12:52:45;;;;;;;28.87;16.13;;;;;;;;;;4871980;29;20053;-64
2023/12/06 12:55:12;;;;;;;27.10;16.53;;;;;;;;;;4871810;29;20515;-64
2023/12/06 12:57:41;;;;;;;32.03;16.90;;;;;;;;;;4873390;29;20044;-65
2023/12/06 13:00:08;;;;;;;19.43;13.83;;;;;;;;;;4873983;29;20096;-64
2023/12/06 13:02:35;;;;;;;24.40;15.03;;;;;;;;;;4873799;29;20520;-64
2023/12/06 13:05:04;;;;;;;21.17;13.00;;;;;;;;;;4866312;29;20567;-64
2023/12/06 13:07:33;;;;;;;26.10;16.67;;;;;;;;;;4873764;29;20041;-64
2023/12/06 13:09:59;;;;;;;16.43;12.53;;;;;;;;;;4875221;29;20083;-64
2023/12/06 13:12:25;;;;;;;28.57;15.63;;;;;;;;;;4869210;29;20491;-65
2023/12/06 13:14:52;;;;;;;19.77;13.57;;;;;;;;;;4860073;29;20049;-64
2023/12/06 13:17:19;;;;;;;22.23;15.23;;;;;;;;;;4874832;29;20586;-64
2023/12/06 13:19:45;;;;;;;25.90;15.63;;;;;;;;;;4874572;29;20053;-64
2023/12/06 13:22:11;;;;;;;23.13;13.97;;;;;;;;;;4884437;29;20071;-64
2023/12/06 13:24:38;;;;;;;20.37;13.33;;;;;;;;;;4887102;29;20063;-64
2023/12/06 13:27:04;;;;;;;19.77;14.03;;;;;;;;;;4866112;29;20062;-64
2023/12/06 13:29:30;;;;;;;23.27;16.57;;;;;;;;;;4881568;29;20518;-64
2023/12/06 13:31:58;;;;;;;18.47;13.17;;;;;;;;;;4886621;29;20045;-65
2023/12/06 13:34:26;;;;;;;27.23;16.73;;;;;;;;;;4882315;29;20160;-64
2023/12/06 13:36:53;;;;;;;26.87;15.23;;;;;;;;;;4888899;29;20474;-64
2023/12/06 13:39:19;;;;;;;24.80;16.00;;;;;;;;;;4891640;29;20547;-64
2023/12/06 13:41:45;;;;;;;23.00;14.53;;;;;;;;;;4887379;29;20063;-64
2023/12/06 13:44:11;;;;;;;25.00;14.83;;;;;;;;;;4875867;29;20048;-64
2023/12/06 13:46:37;;;;;;;29.97;15.27;;;;;;;;;;4874092;29;20041;-64
2023/12/06 13:49:04;;;;;;;25.27;16.90;;;;;;;;;;4874825;29;20530;-64
2023/12/06 13:51:30;;;;;;;32.23;17.87;;;;;;;;;;4876965;29;20060;-64
2023/12/06 13:53:57;;;;;;;25.47;16.90;;;;;;;;;;4877029;29;20460;-64
2023/12/06 13:56:23;;;;;;;23.80;14.47;;;;;;;;;;4876980;29;20504;-64
2023/12/06 13:58:49;;;;;;;25.03;16.27;;;;;;;;;;4876728;29;20057;-64
2023/12/06 14:01:15;;;;;;;23.77;15.40;;;;;;;;;;4880622;29;20045;-64
2023/12/06 14:03:42;;;;;;;28.63;16.50;;;;;;;;;;4876988;29;20048;-64
2023/12/06 14:06:10;;;;;;;23.13;15.03;;;;;;;;;;4895464;29;20059;-64
2023/12/06 14:08:36;;;;;;;27.87;17.30;;;;;;;;;;4882057;29;20053;-64